Time;durP1;ratioP1;P1;durP2;ratioP2;P2;SDS_P1;SDS_P2;PMS_P1;PMS_P2;Temp;Humidity;BMP_temperature;BMP_pressure;BME280_temperature;BME280_humidity;BME280_pressure;Samples;Min_cycle;Max_cycle;Signal;HPM_P1;HPM_P2
2022/09/24 00:02:15;;;;;;;6.40;5.70;;;9.60;99.90;;;;;;5010726;28;20287;-50
2022/09/24 00:04:43;;;;;;;9.30;7.57;;;9.60;99.90;;;;;;5010715;28;20745;-51
2022/09/24 00:07:11;;;;;;;174.70;108.33;;;9.60;99.90;;;;;;5010953;28;20231;-51
2022/09/24 00:09:40;;;;;;;17.03;13.97;;;9.60;99.90;;;;;;5010637;28;20333;-51
2022/09/24 00:12:11;;;;;;;8.93;7.43;;;9.50;99.90;;;;;;5010064;28;20645;-51
2022/09/24 00:14:39;;;;;;;51.80;24.63;;;9.40;99.90;;;;;;5011112;28;20292;-51
2022/09/24 00:17:07;;;;;;;4.87;3.83;;;9.40;99.90;;;;;;5008909;28;20309;-51
2022/09/24 00:19:37;;;;;;;5.00;4.20;;;9.40;99.90;;;;;;5010690;28;20657;-51
2022/09/24 00:22:05;;;;;;;12.93;11.93;;;9.40;99.90;;;;;;5010309;28;20236;-51
2022/09/24 00:27:19;;;;;;;24.53;18.13;;;9.40;99.90;;;;;;5010498;28;20206;-50
2022/09/24 00:29:47;;;;;;;43.87;20.87;;;9.40;99.90;;;;;;5010876;28;20293;-50
2022/09/24 00:32:15;;;;;;;6.70;4.93;;;9.30;99.90;;;;;;5010228;28;20294;-49
2022/09/24 00:34:44;;;;;;;38.70;20.20;;;9.30;99.90;;;;;;5010030;28;20294;-51
2022/09/24 00:37:12;;;;;;;14.83;8.87;;;9.20;99.90;;;;;;5010472;28;20221;-51
2022/09/24 00:39:40;;;;;;;5.83;4.27;;;9.20;99.90;;;;;;5010635;28;20234;-51
2022/09/24 00:42:09;;;;;;;11.03;9.93;;;9.20;99.90;;;;;;5009502;28;20210;-51
2022/09/24 00:44:53;;;;;;;7.33;6.67;;;9.20;99.90;;;;;;5010315;28;20568;-51
2022/09/24 00:47:33;;;;;;;7.93;6.87;;;9.20;99.90;;;;;;5010086;28;20207;-51
2022/09/24 00:50:13;;;;;;;8.07;7.33;;;9.10;99.90;;;;;;5010801;28;20675;-51
2022/09/24 00:52:45;;;;;;;17.63;6.67;;;9.10;99.90;;;;;;5010583;28;20211;-50
2022/09/24 00:55:14;;;;;;;6.47;4.30;;;9.10;99.90;;;;;;5012717;28;20305;-51
2022/09/24 00:57:43;;;;;;;4.93;4.53;;;9.10;99.90;;;;;;4996406;28;20203;-51
2022/09/24 01:00:12;;;;;;;8.87;6.07;;;9.10;99.90;;;;;;5009294;28;20420;-51
2022/09/24 01:02:44;;;;;;;6.67;6.07;;;9.10;99.90;;;;;;5009668;28;20210;-51
2022/09/24 01:05:13;;;;;;;9.60;7.87;;;9.10;99.90;;;;;;5009945;28;20581;-50
2022/09/24 01:07:41;;;;;;;7.93;6.97;;;9.10;99.90;;;;;;5010259;28;20298;-50
2022/09/24 01:10:10;;;;;;;5.93;4.93;;;9.10;99.90;;;;;;5009874;28;20328;-50
2022/09/24 01:12:45;;;;;;;7.67;6.80;;;9.10;99.90;;;;;;5009156;28;20782;-51
2022/09/24 01:15:22;;;;;;;7.27;6.27;;;9.00;99.90;;;;;;5010438;28;20302;-51
2022/09/24 01:17:58;;;;;;;7.20;6.50;;;9.00;99.90;;;;;;5010143;28;20219;-51
2022/09/24 01:20:57;;;;;;;11.90;10.83;;;9.00;99.90;;;;;;5010169;28;20315;-51
2022/09/24 01:24:03;;;;;;;8.27;7.07;;;9.00;99.90;;;;;;5007862;28;20293;-51
2022/09/24 01:26:45;;;;;;;6.87;5.10;;;9.00;99.90;;;;;;4997829;28;20664;-51
2022/09/24 01:29:40;;;;;;;8.03;7.13;;;9.00;99.90;;;;;;5009150;28;20209;-51
2022/09/24 01:32:16;;;;;;;6.90;6.07;;;9.00;99.90;;;;;;5009004;28;20293;-50
2022/09/24 01:34:48;;;;;;;6.17;5.03;;;9.10;99.90;;;;;;5006623;28;20293;-50
2022/09/24 01:37:21;;;;;;;11.33;10.40;;;9.10;99.90;;;;;;5009651;28;20326;-50
2022/09/24 01:39:51;;;;;;;9.97;5.87;;;9.10;99.90;;;;;;5009449;28;20319;-50
2022/09/24 01:42:21;;;;;;;12.50;11.37;;;9.10;99.90;;;;;;5008726;28;20222;-51
2022/09/24 01:44:51;;;;;;;8.67;7.87;;;9.20;99.90;;;;;;5009307;28;20221;-51
2022/09/24 01:47:27;;;;;;;8.10;6.33;;;9.20;99.90;;;;;;5009013;28;20485;-51
2022/09/24 01:50:02;;;;;;;15.07;11.20;;;9.20;99.90;;;;;;5008517;28;20222;-51
2022/09/24 01:52:35;;;;;;;6.23;5.63;;;9.20;99.90;;;;;;5009097;28;20210;-51
2022/09/24 01:55:07;;;;;;;5.73;4.97;;;9.30;99.90;;;;;;5009307;28;20235;-51
2022/09/24 01:57:41;;;;;;;12.23;11.17;;;9.30;99.90;;;;;;5009617;28;20290;-50
2022/09/24 02:00:14;;;;;;;9.30;7.30;;;9.30;99.90;;;;;;5009071;28;20325;-51
2022/09/24 02:02:47;;;;;;;15.40;11.03;;;9.20;99.90;;;;;;5009371;28;20296;-50
2022/09/24 02:05:22;;;;;;;16.13;14.67;;;9.20;99.90;;;;;;5009666;28;20223;-51
2022/09/24 02:07:58;;;;;;;30.53;27.77;;;9.20;99.90;;;;;;5009195;28;20261;-51
2022/09/24 02:10:29;;;;;;;21.93;19.93;;;9.30;99.90;;;;;;5009233;28;20234;-51
2022/09/24 02:13:01;;;;;;;42.90;39.73;;;9.30;99.90;;;;;;5009226;28;20289;-51
2022/09/24 02:15:34;;;;;;;12.63;10.30;;;9.30;99.90;;;;;;5013595;28;20297;-51
2022/09/24 02:18:05;;;;;;;11.73;10.80;;;9.30;99.90;;;;;;5012715;28;20302;-50
2022/09/24 02:20:35;;;;;;;11.60;9.90;;;9.30;99.90;;;;;;5012790;28;20234;-51
2022/09/24 02:23:05;;;;;;;5.63;4.80;;;9.30;99.90;;;;;;5012428;28;20217;-50
2022/09/24 02:25:40;;;;;;;6.03;5.40;;;9.30;99.90;;;;;;5012591;28;20217;-50
2022/09/24 02:28:08;;;;;;;14.77;13.60;;;9.30;99.90;;;;;;5012044;28;20770;-50
2022/09/24 02:30:44;;;;;;;18.47;16.47;;;9.30;99.90;;;;;;5011715;28;20897;-51
2022/09/24 02:35:56;;;;;;;7.43;6.70;;;9.30;99.90;;;;;;5011553;28;20230;-50
2022/09/24 02:38:24;;;;;;;7.97;6.80;;;9.20;99.90;;;;;;5011122;28;20680;-51
2022/09/24 02:40:54;;;;;;;8.97;8.03;;;9.20;99.90;;;;;;5011352;28;20610;-50
2022/09/24 02:43:22;;;;;;;5.90;5.40;;;9.20;99.90;;;;;;5011282;28;20277;-51
2022/09/24 02:45:51;;;;;;;21.93;19.67;;;9.20;99.90;;;;;;5012998;28;20293;-50
2022/09/24 02:48:19;;;;;;;5.07;4.60;;;9.20;99.90;;;;;;5012109;28;20611;-50
2022/09/24 02:50:47;;;;;;;66.67;44.80;;;9.20;99.90;;;;;;5011822;28;20682;-51
2022/09/24 02:53:15;;;;;;;7.67;6.93;;;9.20;99.90;;;;;;5011526;28;20265;-51
2022/09/24 02:55:43;;;;;;;7.20;5.40;;;9.20;99.90;;;;;;5012932;28;20314;-51
2022/09/24 02:58:11;;;;;;;5.60;5.00;;;9.20;99.90;;;;;;5012263;28;20345;-51
2022/09/24 03:00:39;;;;;;;31.70;28.80;;;9.20;99.90;;;;;;5012277;28;20603;-51
2022/09/24 03:03:09;;;;;;;7.60;5.20;;;9.20;99.90;;;;;;5012235;28;20239;-50
2022/09/24 03:05:37;;;;;;;7.87;5.43;;;9.30;99.90;;;;;;5011821;28;20214;-50
2022/09/24 03:08:06;;;;;;;17.67;15.93;;;9.30;99.90;;;;;;5012197;28;20295;-51
2022/09/24 03:10:34;;;;;;;8.57;7.13;;;9.30;99.90;;;;;;5012012;28;20238;-50
2022/09/24 03:13:02;;;;;;;5.67;4.60;;;9.30;99.90;;;;;;5011639;28;20241;-50
2022/09/24 03:15:30;;;;;;;8.03;7.23;;;9.30;99.90;;;;;;5012214;28;20293;-50
2022/09/24 03:17:58;;;;;;;6.67;4.97;;;9.30;99.90;;;;;;5011800;28;20290;-51
2022/09/24 03:20:28;;;;;;;6.27;4.70;;;9.30;99.90;;;;;;5011946;28;20326;-51
2022/09/24 03:22:56;;;;;;;8.00;7.40;;;9.40;99.90;;;;;;5011468;28;20225;-51
2022/09/24 03:25:25;;;;;;;7.07;5.93;;;9.30;99.90;;;;;;5010553;28;20221;-51
2022/09/24 03:27:53;;;;;;;7.40;6.70;;;9.30;99.90;;;;;;5011392;28;20293;-51
2022/09/24 03:33:03;;;;;;;14.67;13.40;;;9.30;99.90;;;;;;5005199;28;20298;-50
2022/09/24 03:35:33;;;;;;;5.73;4.57;;;9.20;99.90;;;;;;5011329;28;20575;-51
2022/09/24 03:38:01;;;;;;;5.67;4.20;;;9.10;99.90;;;;;;5011243;28;20304;-49
2022/09/24 03:40:29;;;;;;;5.50;4.63;;;9.10;99.90;;;;;;5011522;28;20694;-50
2022/09/24 03:42:57;;;;;;;5.33;4.10;;;9.00;99.90;;;;;;5010624;28;20203;-51
2022/09/24 03:45:25;;;;;;;5.53;4.90;;;9.00;99.90;;;;;;5011535;28;20238;-51
2022/09/24 03:47:54;;;;;;;5.97;4.60;;;9.00;99.90;;;;;;5011315;28;20230;-50
2022/09/24 03:50:22;;;;;;;6.53;5.40;;;8.90;99.90;;;;;;5011527;28;20308;-51
2022/09/24 03:52:51;;;;;;;12.30;11.23;;;8.90;99.90;;;;;;5010870;28;20297;-50
2022/09/24 03:55:19;;;;;;;13.63;10.77;;;8.80;99.90;;;;;;5010933;28;20210;-51
2022/09/24 03:57:47;;;;;;;6.20;4.20;;;8.80;99.90;;;;;;5008811;28;20206;-51
2022/09/24 04:00:15;;;;;;;89.43;62.70;;;8.80;99.90;;;;;;5010997;28;20235;-51
2022/09/24 04:02:45;;;;;;;4.27;3.87;;;8.80;99.90;;;;;;5011074;28;20286;-51
2022/09/24 04:05:13;;;;;;;4.80;4.40;;;8.80;99.90;;;;;;5011253;28;20237;-51
2022/09/24 04:07:42;;;;;;;7.43;4.07;;;8.70;99.90;;;;;;5011232;28;20217;-51
2022/09/24 04:10:12;;;;;;;8.50;7.63;;;8.70;99.90;;;;;;5010609;28;20265;-51
2022/09/24 04:12:42;;;;;;;5.03;4.53;;;8.60;99.90;;;;;;4996952;28;20234;-50
2022/09/24 04:15:11;;;;;;;6.97;4.90;;;8.60;99.90;;;;;;5011447;28;20246;-51
2022/09/24 04:17:39;;;;;;;5.57;3.80;;;8.60;99.90;;;;;;5014891;28;20218;-51
2022/09/24 04:20:07;;;;;;;27.63;24.63;;;8.60;99.90;;;;;;5010601;28;20238;-50
2022/09/24 04:22:35;;;;;;;4.47;3.93;;;8.50;99.90;;;;;;5010524;28;20289;-51
2022/09/24 04:25:04;;;;;;;4.43;4.00;;;8.50;99.90;;;;;;5011092;28;20301;-51
2022/09/24 04:27:34;;;;;;;6.10;5.27;;;8.50;99.90;;;;;;5010654;28;20298;-50
2022/09/24 04:30:03;;;;;;;6.00;5.37;;;8.50;99.90;;;;;;5010951;28;20317;-50
2022/09/24 04:32:31;;;;;;;5.47;4.13;;;8.40;99.90;;;;;;5009552;28;20658;-50
2022/09/24 04:34:59;;;;;;;4.80;4.40;;;8.40;99.90;;;;;;5010227;28;20285;-51
2022/09/24 04:37:33;;;;;;;5.70;4.30;;;8.40;99.90;;;;;;5010416;28;20205;-50
2022/09/24 04:40:02;;;;;;;4.67;3.90;;;8.40;99.90;;;;;;5009525;28;21023;-51
2022/09/24 04:42:30;;;;;;;10.03;8.13;;;8.50;99.90;;;;;;5009743;28;20297;-51
2022/09/24 04:44:59;;;;;;;8.50;5.83;;;8.50;99.90;;;;;;5009681;28;20210;-51
2022/09/24 04:47:28;;;;;;;9.70;7.73;;;8.60;99.90;;;;;;5010806;28;20214;-50
2022/09/24 04:49:56;;;;;;;7.67;5.83;;;8.50;99.90;;;;;;5010312;28;20789;-50
2022/09/24 04:52:28;;;;;;;6.50;4.37;;;8.50;99.90;;;;;;5010088;28;20214;-50
2022/09/24 04:54:56;;;;;;;3.93;3.50;;;8.50;99.90;;;;;;5010094;28;20207;-50
2022/09/24 04:57:25;;;;;;;6.13;4.37;;;8.50;99.90;;;;;;5010112;28;20215;-51
2022/09/24 04:59:54;;;;;;;4.33;3.93;;;8.50;99.90;;;;;;5010490;28;20326;-51
2022/09/24 05:02:23;;;;;;;6.03;4.60;;;8.50;99.90;;;;;;5010215;28;20269;-50
2022/09/24 05:04:52;;;;;;;4.93;3.93;;;8.50;99.90;;;;;;5010033;28;20695;-51
2022/09/24 05:07:20;;;;;;;4.87;3.67;;;8.50;99.90;;;;;;5009018;28;20293;-50
2022/09/24 05:09:48;;;;;;;7.30;4.87;;;8.50;99.90;;;;;;5008618;28;20654;-51
2022/09/24 05:12:17;;;;;;;4.03;3.47;;;8.50;99.90;;;;;;5009108;28;20203;-49
2022/09/24 05:14:47;;;;;;;5.93;4.87;;;8.40;99.90;;;;;;5010036;28;20211;-51
2022/09/24 05:17:15;;;;;;;4.90;4.37;;;8.40;99.90;;;;;;5010101;28;20735;-51
2022/09/24 05:19:45;;;;;;;6.70;4.57;;;8.40;99.90;;;;;;5010180;28;20231;-51
2022/09/24 05:22:13;;;;;;;4.80;3.80;;;8.40;99.90;;;;;;5009194;28;20232;-51
2022/09/24 05:24:41;;;;;;;6.87;4.63;;;8.40;99.90;;;;;;5010270;28;20214;-50
2022/09/24 05:27:08;;;;;;;5.60;4.23;;;8.30;99.90;;;;;;5009793;28;20215;-51
2022/09/24 05:29:37;;;;;;;6.47;4.90;;;8.40;99.90;;;;;;5010321;28;20230;-50
2022/09/24 05:32:07;;;;;;;6.17;5.17;;;8.40;99.90;;;;;;5009721;28;20208;-51
2022/09/24 05:34:35;;;;;;;6.13;4.20;;;8.40;99.90;;;;;;5008473;28;20698;-51
2022/09/24 05:37:05;;;;;;;7.17;3.90;;;8.50;99.90;;;;;;4994121;28;20212;-51
2022/09/24 05:39:33;;;;;;;7.67;4.77;;;8.50;99.90;;;;;;4995077;28;20318;-50
2022/09/24 05:42:02;;;;;;;6.33;4.00;;;8.60;99.90;;;;;;4990244;28;21197;-50
2022/09/24 05:44:30;;;;;;;5.83;3.70;;;8.50;99.90;;;;;;4990293;28;20297;-50
2022/09/24 05:46:59;;;;;;;14.97;9.90;;;8.60;99.90;;;;;;4993946;28;20260;-51
2022/09/24 05:49:27;;;;;;;6.73;5.87;;;8.60;99.90;;;;;;4989222;28;20220;-51
2022/09/24 05:51:55;;;;;;;15.33;13.90;;;8.50;99.90;;;;;;4990510;28;20216;-50
2022/09/24 05:54:25;;;;;;;7.07;6.33;;;8.60;99.90;;;;;;4990521;28;20236;-50
2022/09/24 05:56:53;;;;;;;11.37;9.70;;;8.60;99.90;;;;;;4994866;28;20217;-51
2022/09/24 05:59:21;;;;;;;4.27;3.73;;;8.60;99.90;;;;;;5000285;28;20691;-51
2022/09/24 06:01:49;;;;;;;21.47;14.00;;;8.70;99.90;;;;;;4991595;28;20223;-50
2022/09/24 06:04:17;;;;;;;5.23;3.73;;;8.70;99.90;;;;;;4991305;28;20285;-51
2022/09/24 06:06:45;;;;;;;4.60;4.20;;;8.80;99.90;;;;;;4990551;28;20294;-51
2022/09/24 06:09:13;;;;;;;8.40;7.20;;;8.80;99.90;;;;;;4992526;28;20218;-52
2022/09/24 06:11:43;;;;;;;6.53;4.50;;;8.80;99.90;;;;;;4990834;28;20282;-51
2022/09/24 06:14:11;;;;;;;7.07;6.47;;;8.90;99.90;;;;;;4989505;28;20302;-50
2022/09/24 06:16:40;;;;;;;8.37;6.70;;;8.90;99.90;;;;;;4993622;28;20222;-50
2022/09/24 06:19:08;;;;;;;7.00;5.37;;;8.90;99.90;;;;;;4999891;28;20209;-50
2022/09/24 06:21:36;;;;;;;7.10;5.00;;;9.00;99.90;;;;;;4991199;28;20238;-50
2022/09/24 06:24:04;;;;;;;8.03;5.90;;;9.00;99.90;;;;;;4992378;28;20294;-50
2022/09/24 06:26:33;;;;;;;30.70;28.07;;;9.10;99.90;;;;;;4990317;28;20213;-51
2022/09/24 06:29:02;;;;;;;16.30;14.13;;;9.10;99.90;;;;;;4992735;28;20219;-51
2022/09/24 06:31:33;;;;;;;6.67;5.03;;;9.10;99.90;;;;;;5002443;28;20218;-51
2022/09/24 06:34:02;;;;;;;8.20;7.23;;;9.20;99.90;;;;;;4994143;28;20435;-50
2022/09/24 06:36:30;;;;;;;13.23;12.30;;;9.20;99.90;;;;;;5003933;28;20340;-51
2022/09/24 06:38:58;;;;;;;25.57;23.43;;;9.20;99.90;;;;;;5007039;28;20853;-51
2022/09/24 06:41:26;;;;;;;20.73;18.67;;;9.30;99.90;;;;;;5006975;28;20282;-50
2022/09/24 06:43:55;;;;;;;12.33;11.13;;;9.30;99.90;;;;;;5007048;28;20281;-50
2022/09/24 06:46:24;;;;;;;170.47;156.93;;;9.60;99.90;;;;;;5001956;28;20309;-50
2022/09/24 06:48:54;;;;;;;46.23;40.87;;;10.00;99.90;;;;;;5008332;28;20708;-51
2022/09/24 06:51:22;;;;;;;119.53;108.90;;;10.40;99.90;;;;;;5008045;28;20233;-51
2022/09/24 06:53:52;;;;;;;207.43;187.13;;;10.70;99.90;;;;;;4990724;28;20222;-51
2022/09/24 06:56:20;;;;;;;160.50;144.00;;;11.00;99.90;;;;;;4997220;28;20237;-51
2022/09/24 06:58:48;;;;;;;138.33;112.03;;;11.30;99.90;;;;;;5008362;28;20294;-51
2022/09/24 07:01:16;;;;;;;221.53;199.43;;;11.50;99.90;;;;;;5011286;28;20351;-50
2022/09/24 07:03:45;;;;;;;200.93;179.40;;;11.70;99.90;;;;;;5011039;28;20222;-51
2022/09/24 07:06:13;;;;;;;152.27;131.43;;;11.80;99.90;;;;;;5011294;28;20298;-51
2022/09/24 07:08:42;;;;;;;204.77;183.90;;;12.00;99.90;;;;;;5011410;28;20211;-51
2022/09/24 07:11:10;;;;;;;309.37;281.07;;;11.90;99.90;;;;;;5011367;28;20791;-51
2022/09/24 07:13:38;;;;;;;330.67;296.30;;;12.10;99.90;;;;;;5010933;28;20313;-51
2022/09/24 07:16:06;;;;;;;298.93;269.40;;;12.30;99.90;;;;;;5011365;28;20294;-51
2022/09/24 07:18:36;;;;;;;369.30;328.63;;;12.50;99.90;;;;;;5011587;28;20222;-52
2022/09/24 07:21:06;;;;;;;330.20;294.07;;;12.60;99.90;;;;;;5011239;28;20285;-51
2022/09/24 07:23:34;;;;;;;340.90;306.03;;;12.80;99.90;;;;;;5010305;28;20680;-52
2022/09/24 07:26:02;;;;;;;319.33;289.73;;;12.90;99.90;;;;;;5003248;28;20210;-51
2022/09/24 07:28:30;;;;;;;354.23;314.30;;;13.00;99.90;;;;;;5011384;28;20203;-51
2022/09/24 07:30:59;;;;;;;380.73;342.58;;;13.20;99.90;;;;;;5011049;28;20309;-51
2022/09/24 07:33:27;;;;;;;365.10;332.87;;;13.40;99.90;;;;;;5006364;28;20204;-51
2022/09/24 07:35:55;;;;;;;307.17;279.33;;;13.40;99.90;;;;;;4992620;28;20210;-50
2022/09/24 07:38:25;;;;;;;307.67;272.33;;;13.50;99.90;;;;;;4993198;28;20218;-53
2022/09/24 07:40:57;;;;;;;272.27;244.27;;;13.40;99.90;;;;;;4991581;28;20736;-51
2022/09/24 07:43:27;;;;;;;279.87;249.60;;;13.40;99.90;;;;;;5007518;28;20362;-51
2022/09/24 07:45:56;;;;;;;160.57;144.40;;;13.40;99.90;;;;;;5010939;28;20242;-51
2022/09/24 07:48:25;;;;;;;141.83;121.50;;;13.50;99.90;;;;;;5010418;28;20250;-51
2022/09/24 07:50:53;;;;;;;179.20;162.30;;;13.50;99.90;;;;;;5010354;28;20342;-51
2022/09/24 07:53:22;;;;;;;160.60;144.67;;;13.50;99.90;;;;;;5010425;28;20294;-51
2022/09/24 07:55:51;;;;;;;97.47;80.90;;;13.50;99.90;;;;;;5011198;28;20207;-51
2022/09/24 07:58:20;;;;;;;164.63;146.90;;;13.50;99.90;;;;;;5009850;28;20207;-51
2022/09/24 08:00:48;;;;;;;161.43;143.77;;;13.60;99.90;;;;;;5008923;28;20253;-51
2022/09/24 08:03:16;;;;;;;122.10;110.30;;;13.80;99.90;;;;;;5008415;28;20310;-51
2022/09/24 08:05:45;;;;;;;176.43;147.20;;;13.90;99.90;;;;;;4997353;28;20330;-51
2022/09/24 08:08:13;;;;;;;67.43;44.17;;;13.90;99.90;;;;;;4995304;28;20290;-51
2022/09/24 08:10:42;;;;;;;91.23;81.43;;;14.10;99.90;;;;;;4995991;28;20313;-52
2022/09/24 08:13:11;;;;;;;183.80;166.53;;;14.20;99.90;;;;;;5004697;28;20214;-52
2022/09/24 08:15:40;;;;;;;177.37;158.60;;;14.30;99.90;;;;;;4992309;28;20218;-51
2022/09/24 08:18:08;;;;;;;100.43;89.70;;;14.30;99.90;;;;;;4993354;28;20258;-51
2022/09/24 08:20:38;;;;;;;111.80;92.07;;;14.40;99.90;;;;;;4998206;28;20251;-51
2022/09/24 08:23:08;;;;;;;126.30;112.10;;;14.50;99.90;;;;;;5002942;28;20323;-52
2022/09/24 08:25:36;;;;;;;169.10;153.50;;;14.60;99.90;;;;;;4994495;28;20221;-51
2022/09/24 08:28:06;;;;;;;101.03;90.50;;;14.60;99.90;;;;;;4995149;28;20207;-52
2022/09/24 08:30:36;;;;;;;136.53;122.87;;;14.60;99.90;;;;;;4991400;28;20817;-52
2022/09/24 08:33:05;;;;;;;144.13;127.53;;;14.80;99.90;;;;;;4994021;28;20302;-51
2022/09/24 08:35:34;;;;;;;168.63;152.07;;;14.90;99.90;;;;;;5000219;28;20314;-52
2022/09/24 08:38:02;;;;;;;98.43;79.30;;;15.00;99.90;;;;;;4992775;28;20338;-50
2022/09/24 08:40:34;;;;;;;148.90;133.00;;;15.00;99.90;;;;;;4990805;28;20314;-51
2022/09/24 08:43:09;;;;;;;113.67;101.90;;;14.90;99.90;;;;;;5003073;28;20233;-50
2022/09/24 08:48:36;;;;;;;133.57;119.73;;;15.00;99.90;;;;;;5006483;28;20294;-51
2022/09/24 08:51:08;;;;;;;169.57;153.23;;;15.00;99.90;;;;;;4998191;28;20317;-51
2022/09/24 08:53:45;;;;;;;80.33;71.63;;;15.00;99.90;;;;;;5007782;28;20797;-51
2022/09/24 08:56:14;;;;;;;83.93;74.97;;;15.10;99.90;;;;;;4999570;28;20209;-51
2022/09/24 08:58:48;;;;;;;122.67;112.07;;;15.10;99.90;;;;;;5004070;28;20203;-50
2022/09/24 09:01:24;;;;;;;161.40;147.87;;;15.00;99.90;;;;;;5000415;28;20790;-50
2022/09/24 09:03:57;;;;;;;116.43;94.90;;;15.00;99.90;;;;;;5008903;28;20226;-51
2022/09/24 09:06:47;;;;;;;151.53;138.10;;;15.00;99.90;;;;;;5009041;28;20214;-51
2022/09/24 09:09:18;;;;;;;205.33;188.50;;;15.10;99.90;;;;;;5013014;28;20222;-50
2022/09/24 09:11:49;;;;;;;173.00;156.00;;;15.10;99.90;;;;;;5008169;28;20211;-51
2022/09/24 09:14:22;;;;;;;175.27;158.80;;;15.20;99.90;;;;;;5009063;28;20191;-51
2022/09/24 09:16:55;;;;;;;145.17;132.00;;;15.20;99.90;;;;;;5008728;28;20199;-51
2022/09/24 09:19:30;;;;;;;110.97;102.23;;;15.20;99.90;;;;;;5001975;28;20290;-50
2022/09/24 09:22:01;;;;;;;154.52;140.93;;;15.30;99.90;;;;;;5004489;28;20297;-51
2022/09/24 09:24:39;;;;;;;220.97;203.63;;;15.20;99.90;;;;;;5005904;28;20722;-50
2022/09/24 09:27:13;;;;;;;140.67;129.37;;;15.20;99.90;;;;;;5002360;28;20763;-51
2022/09/24 09:29:42;;;;;;;150.57;136.10;;;15.30;99.90;;;;;;5008634;28;20235;-51
2022/09/24 09:32:24;;;;;;;153.23;139.30;;;15.40;99.90;;;;;;5006916;28;20214;-51
2022/09/24 09:35:03;;;;;;;212.43;194.03;;;15.50;99.90;;;;;;4991294;28;20286;-51
2022/09/24 09:37:40;;;;;;;224.07;205.57;;;15.50;99.90;;;;;;4992888;28;20943;-51
2022/09/24 09:40:23;;;;;;;90.60;81.47;;;15.50;99.90;;;;;;4994776;28;20233;-51
2022/09/24 09:43:02;;;;;;;171.17;156.00;;;15.60;99.90;;;;;;4996182;28;20234;-51
2022/09/24 09:45:38;;;;;;;131.90;118.53;;;15.70;99.90;;;;;;4993607;28;20291;-51
2022/09/24 09:48:12;;;;;;;139.23;125.43;;;15.70;99.90;;;;;;4995328;28;20211;-52
2022/09/24 09:50:45;;;;;;;170.82;153.68;;;15.80;99.90;;;;;;4994468;28;20223;-51
2022/09/24 09:53:21;;;;;;;197.07;178.23;;;15.90;99.90;;;;;;4994027;28;20295;-51
2022/09/24 09:55:54;;;;;;;243.60;219.98;;;15.90;99.90;;;;;;5006016;28;20260;-51
2022/09/24 09:58:24;;;;;;;167.33;151.50;;;16.00;99.90;;;;;;5007841;28;20294;-51
2022/09/24 10:00:53;;;;;;;166.87;150.67;;;16.00;99.90;;;;;;5008382;28;20250;-51
2022/09/24 10:03:25;;;;;;;136.73;124.45;;;16.10;99.90;;;;;;4993058;28;20220;-51
2022/09/24 10:05:55;;;;;;;148.02;134.52;;;16.20;99.90;;;;;;5001502;28;20580;-51
2022/09/24 10:08:24;;;;;;;197.63;178.93;;;16.30;99.90;;;;;;5008706;28;20639;-51
2022/09/24 10:10:55;;;;;;;291.00;263.33;;;16.30;99.90;;;;;;5007998;28;20680;-51
2022/09/24 10:13:24;;;;;;;230.10;207.75;;;16.40;99.90;;;;;;5008096;28;20309;-51
2022/09/24 10:15:53;;;;;;;204.13;183.07;;;16.50;99.90;;;;;;5008233;28;20261;-51
2022/09/24 10:18:30;;;;;;;185.60;167.68;;;16.50;99.90;;;;;;5008639;28;20206;-51
2022/09/24 10:21:02;;;;;;;263.35;241.27;;;16.50;99.90;;;;;;5007842;28;20830;-51
2022/09/24 10:23:36;;;;;;;253.88;230.32;;;16.50;99.90;;;;;;4999898;28;20294;-50
2022/09/24 10:26:05;;;;;;;165.60;150.75;;;16.50;99.90;;;;;;5002481;28;20294;-50
2022/09/24 10:31:22;;;;;;;97.75;88.95;;;16.40;99.90;;;;;;4999802;28;20261;-51
2022/09/24 10:33:55;;;;;;;190.10;172.77;;;16.30;99.90;;;;;;4998199;28;20287;-51
2022/09/24 10:36:25;;;;;;;238.90;216.00;;;16.40;99.90;;;;;;4996051;28;20299;-49
2022/09/24 10:39:03;;;;;;;156.80;143.02;;;16.40;99.90;;;;;;5009350;28;20290;-51
2022/09/24 10:41:32;;;;;;;286.98;258.08;;;16.50;99.90;;;;;;5007851;28;20269;-50
2022/09/24 10:44:04;;;;;;;226.93;208.15;;;16.60;99.90;;;;;;5007795;28;20306;-50
2022/09/24 10:47:04;;;;;;;213.85;197.38;;;16.60;99.90;;;;;;4995541;28;20665;-51
2022/09/24 10:49:52;;;;;;;165.38;153.60;;;16.70;99.90;;;;;;5011050;28;20234;-50
2022/09/24 10:52:42;;;;;;;196.85;176.68;;;16.80;99.90;;;;;;5000154;28;20752;-51
2022/09/24 10:55:23;;;;;;;216.50;192.93;;;16.90;99.90;;;;;;5011470;28;20213;-51
2022/09/24 10:58:01;;;;;;;332.20;299.58;;;16.90;99.90;;;;;;5010892;28;20210;-51
2022/09/24 11:00:38;;;;;;;133.30;120.45;;;17.10;99.90;;;;;;5011067;28;20238;-51
2022/09/24 11:03:27;;;;;;;173.13;154.93;;;17.20;99.90;;;;;;5010615;28;20234;-50
2022/09/24 11:06:02;;;;;;;249.65;224.32;;;17.30;99.90;;;;;;4999403;28;20319;-51
2022/09/24 11:08:46;;;;;;;262.77;222.25;;;17.30;99.90;;;;;;5017309;28;20682;-51
2022/09/24 11:11:30;;;;;;;153.70;137.43;;;17.50;99.90;;;;;;5008462;28;20234;-51
2022/09/24 11:14:11;;;;;;;180.57;163.60;;;17.50;99.90;;;;;;5010069;28;20253;-51
2022/09/24 11:16:54;;;;;;;288.45;252.02;;;17.60;99.90;;;;;;5011470;28;20218;-51
2022/09/24 11:19:41;;;;;;;231.30;206.20;;;17.60;99.90;;;;;;5010666;28;20249;-51
2022/09/24 11:22:15;;;;;;;265.10;241.05;;;17.60;99.90;;;;;;5010227;28;20203;-51
2022/09/24 11:25:12;;;;;;;267.35;238.15;;;17.70;99.90;;;;;;5011684;28;20215;-51
2022/09/24 11:27:51;;;;;;;153.02;138.02;;;17.80;99.90;;;;;;5010771;28;20849;-51
2022/09/24 11:30:23;;;;;;;190.23;169.63;;;17.90;99.90;;;;;;5011674;28;20277;-51
2022/09/24 11:33:02;;;;;;;186.13;168.23;;;18.10;99.90;;;;;;4995168;28;20262;-51
2022/09/24 11:36:01;;;;;;;227.95;204.85;;;18.10;99.90;;;;;;5011169;28;20199;-51
2022/09/24 11:38:44;;;;;;;194.85;176.45;;;18.10;99.90;;;;;;5004122;28;20291;-50
2022/09/24 11:41:26;;;;;;;286.85;255.77;;;18.00;99.90;;;;;;5010752;28;20313;-50
2022/09/24 11:44:12;;;;;;;234.77;211.32;;;18.20;99.90;;;;;;5009601;28;20261;-51
2022/09/24 11:46:50;;;;;;;263.50;238.25;;;18.30;99.90;;;;;;5009926;28;20233;-51
2022/09/24 11:49:33;;;;;;;332.35;300.35;;;18.30;99.90;;;;;;5011245;28;20211;-50
2022/09/24 11:52:08;;;;;;;210.55;188.18;;;18.20;99.90;;;;;;5006981;28;20297;-51
2022/09/24 11:54:43;;;;;;;260.02;231.43;;;18.10;99.90;;;;;;4999887;28;20195;-51
2022/09/24 11:57:17;;;;;;;235.95;213.85;;;18.20;99.90;;;;;;5004372;28;20406;-51
2022/09/24 11:59:53;;;;;;;246.27;221.00;;;18.20;99.90;;;;;;5004838;28;20235;-51
2022/09/24 12:02:24;;;;;;;257.10;230.60;;;18.20;99.90;;;;;;5010583;28;20293;-51
2022/09/24 12:04:59;;;;;;;194.15;156.77;;;18.30;99.90;;;;;;5007317;28;20219;-52
2022/09/24 12:07:34;;;;;;;256.88;230.00;;;18.50;99.90;;;;;;5007860;28;20236;-51
2022/09/24 12:10:12;;;;;;;235.43;212.52;;;18.50;99.90;;;;;;5010279;28;20273;-51
2022/09/24 12:12:44;;;;;;;288.42;261.13;;;18.70;99.90;;;;;;4996866;28;20298;-50
2022/09/24 12:15:18;;;;;;;313.17;287.25;;;18.80;99.90;;;;;;5009521;28;20286;-51
2022/09/24 12:17:51;;;;;;;295.52;270.45;;;18.80;99.90;;;;;;5009905;28;20667;-52
2022/09/24 12:20:25;;;;;;;310.48;283.75;;;18.80;99.90;;;;;;5009658;28;20747;-52
2022/09/24 12:22:58;;;;;;;305.33;275.27;;;18.70;99.90;;;;;;5008042;28;20736;-51
2022/09/24 12:25:32;;;;;;;274.73;250.82;;;18.80;99.90;;;;;;5001938;28;20326;-51
2022/09/24 12:28:01;;;;;;;305.95;282.10;;;18.70;99.90;;;;;;5001566;28;20289;-51
2022/09/24 12:33:27;;;;;;;235.00;214.95;;;18.80;99.90;;;;;;4999473;28;20215;-52
2022/09/24 12:36:04;;;;;;;277.02;253.27;;;18.70;99.90;;;;;;4998738;28;20195;-51
2022/09/24 12:38:36;;;;;;;329.35;302.73;;;18.70;99.90;;;;;;4993737;28;20318;-51
2022/09/24 12:41:20;;;;;;;240.88;217.40;;;18.60;99.90;;;;;;4991724;28;20231;-51
2022/09/24 12:43:52;;;;;;;330.63;302.13;;;18.70;99.90;;;;;;4994457;28;20233;-51
2022/09/24 12:46:23;;;;;;;306.25;281.27;;;18.70;99.90;;;;;;4994926;28;20262;-51
2022/09/24 12:48:54;;;;;;;316.42;291.98;;;18.70;99.90;;;;;;5002141;28;20203;-51
2022/09/24 12:51:22;;;;;;;258.40;236.13;;;18.80;99.90;;;;;;4990639;28;20318;-51
2022/09/24 12:54:00;;;;;;;231.43;210.80;;;18.80;99.90;;;;;;4994407;28;20211;-51
2022/09/24 12:56:30;;;;;;;262.35;237.35;;;18.90;99.90;;;;;;5004028;28;20382;-51
2022/09/24 12:58:58;;;;;;;231.48;207.55;;;19.00;99.90;;;;;;5004495;28;20294;-51
2022/09/24 13:01:29;;;;;;;283.15;257.38;;;19.00;99.90;;;;;;5009086;28;20657;-51
2022/09/24 13:04:06;;;;;;;268.95;246.20;;;19.10;99.90;;;;;;5007758;28;20633;-51
2022/09/24 13:06:37;;;;;;;172.48;157.13;;;19.10;99.90;;;;;;4998600;28;20651;-51
2022/09/24 13:09:34;;;;;;;253.35;229.27;;;19.20;99.90;;;;;;5008301;28;20311;-51
2022/09/24 13:12:18;;;;;;;271.35;249.32;;;19.20;99.90;;;;;;5008574;28;21040;-51